George, South Africa

12:48 AM SAST on August 31, 2015 (GMT +0200)
George | | Change Station
CLOSE
Current Station
Airport
Location: George,
Elevation: 633 ft
Nearby Weather Stations

Elev 633 ft 34.01 °S, 22.38 °E | Updated 48 minutes ago

Mostly Cloudy
Mostly Cloudy
55 °F
Feels Like 55 °F
N
4
Wind Variable Wind from NW

Today
High -- | Low -- °F
--% Chance of Precip.
Yesterday
High -- | Low -- °F
Precip. -- in
6:50 AM 6:11 PM
Full, 98% visible
Pressure 30.04 in
Visibility 5.6 miles
Clouds Mostly Cloudy 200 ft
Mostly Cloudy 400 ft
Dew Point 55 °F
Humidity 100%
Rainfall 0.00 in
Snow Depth Not available.
UV 0 out of 12
Pollen Not available.
Air Quality Not available.
Flu Activity Not available.
METAR FAGG 302200Z AUTO 32003KT 300V010 9000 BKN002/// BKN004/// 13/13 Q1017
Pressure 30.04 in
Visibility 5.6 miles
Clouds Mostly Cloudy 200 ft
Mostly Cloudy 400 ft
Dew Point 55 °F
Humidity 100%
Rainfall 0.00 in
Snow Depth Not available.
UV 0 out of 12
Pollen Not available.
Air Quality Not available.
Flu Activity Not available.
METAR FAGG 302200Z AUTO 32003KT 300V010 9000 BKN002/// BKN004/// 13/13 Q1017

10-Day Weather Forecast

×

Almanac

Astronomy

Aug. 31, 2015 Rise Set
Actual Time
Civil Twilight
Nautical Twilight
Astronomical Twilight
Moon
Length of Visible Light
Length of Day
Tomorrow will be .
, % of the Moon is Illuminated

Today's Extremes

Country Highs Country Lows

Community

WunderPhotos

Upload Photos

1,851,075 photos uploaded!

WunderBlogs® & News

Nearby

Air Quality

  Air Quality AQ Index Pollutant
Not available.

Snow Depth

Station Depth Elevation

Earthquake Activity

City Distance Mag. Time & Date
Minimum magnitude displayed is 2.5.

Coastal Water Temperatures

Place Temperature

Stations

Nearby Weather Stations

Station Location Temp. Windchill Dew Point Humidity Wind Precip. Elev Updated Type